createdAt,value
2019-06-01T00:02:12.000Z,26.43
2019-06-01T00:04:45.216Z,26.40
2019-06-01T00:07:18.275Z,26.36
2019-06-01T00:09:50.143Z,26.27
2019-06-01T00:12:22.511Z,26.20
2019-06-01T00:14:54.786Z,26.15
2019-06-01T00:17:27.164Z,26.13
2019-06-01T00:19:59.255Z,26.13
2019-06-01T00:22:31.828Z,26.09
2019-06-01T00:25:05.122Z,26.22
2019-06-01T00:27:37.644Z,26.26
2019-06-01T00:30:09.971Z,26.26
2019-06-01T00:32:43.003Z,26.19
2019-06-01T00:35:15.851Z,26.18
2019-06-01T00:37:48.064Z,26.16
2019-06-01T00:40:20.309Z,26.13
2019-06-01T00:42:52.543Z,26.07
2019-06-01T00:45:24.431Z,26.13
2019-06-01T00:47:56.601Z,26.18
2019-06-01T00:50:28.897Z,26.26
2019-06-01T00:53:01.250Z,26.28
2019-06-01T00:55:33.524Z,26.35
2019-06-01T00:58:06.006Z,26.53
2019-06-01T01:00:43.592Z,26.78
2019-06-01T01:03:12.298Z,26.95
2019-06-01T01:05:44.723Z,26.77
2019-06-01T01:08:16.837Z,26.75
2019-06-01T01:10:49.214Z,26.81
2019-06-01T01:13:23.196Z,26.80
2019-06-01T01:15:55.579Z,26.74
2019-06-01T01:18:27.569Z,26.77
2019-06-01T01:20:59.744Z,26.70
2019-06-01T01:23:32.221Z,26.61
2019-06-01T01:26:04.881Z,26.55
2019-06-01T01:28:36.974Z,26.51
2019-06-01T01:31:13.802Z,26.45
2019-06-01T01:33:43.372Z,26.47
2019-06-01T01:36:15.433Z,26.40
2019-06-01T01:38:48.292Z,26.42
2019-06-01T01:41:20.593Z,26.44
2019-06-01T01:43:53.069Z,26.43
2019-06-01T01:46:25.132Z,26.40
2019-06-01T01:48:58.194Z,26.39
2019-06-01T01:51:30.401Z,26.38
2019-06-01T01:54:04.510Z,26.37
2019-06-01T01:56:36.581Z,26.34
2019-06-01T01:59:08.954Z,26.32
2019-06-01T02:01:40.914Z,26.31
2019-06-01T02:04:13.295Z,26.32
2019-06-01T02:06:45.671Z,26.33
2019-06-01T02:09:18.131Z,26.33
2019-06-01T02:11:51.405Z,26.26
2019-06-01T02:14:24.336Z,26.29
2019-06-01T02:16:56.402Z,26.29
2019-06-01T02:19:28.471Z,26.32
2019-06-01T02:22:01.291Z,26.34
2019-06-01T02:24:33.435Z,26.29
2019-06-01T02:27:05.602Z,26.36
2019-06-01T02:29:37.487Z,26.40
2019-06-01T02:32:09.942Z,26.46
2019-06-01T02:34:42.118Z,26.50
2019-06-01T02:37:14.488Z,26.56
2019-06-01T02:39:46.859Z,26.58
2019-06-01T02:42:19.336Z,26.59
2019-06-01T02:44:52.751Z,26.57
2019-06-01T02:47:25.542Z,26.63
2019-06-01T02:49:59.376Z,26.59
2019-06-01T02:52:31.509Z,26.57
2019-06-01T02:55:06.518Z,26.60
2019-06-01T02:57:38.818Z,26.60
2019-06-01T03:00:10.894Z,26.64
2019-06-01T03:02:43.062Z,26.70
2019-06-01T03:05:15.028Z,26.76
2019-06-01T03:07:47.817Z,26.81
2019-06-01T03:10:19.987Z,26.86
2019-06-01T03:12:52.559Z,26.82
2019-06-01T03:15:24.430Z,26.90
2019-06-01T03:17:56.908Z,26.96
2019-06-01T03:20:28.871Z,27.01
2019-06-01T03:23:01.766Z,27.05
2019-06-01T03:25:33.831Z,27.19
2019-06-01T03:28:06.226Z,27.25
2019-06-01T03:30:45.558Z,27.24
2019-06-01T03:33:17.135Z,27.14
2019-06-01T03:35:49.885Z,27.25
2019-06-01T03:38:22.065Z,27.34
2019-06-01T03:40:54.641Z,27.38
2019-06-01T03:43:26.503Z,27.49
2019-06-01T03:45:58.777Z,27.49
2019-06-01T03:48:30.702Z,27.50
2019-06-01T03:51:03.613Z,27.65
2019-06-01T03:53:35.698Z,27.67
2019-06-01T03:56:09.045Z,27.62
2019-06-01T03:58:41.069Z,27.52
2019-06-01T04:01:13.237Z,27.54
2019-06-01T04:03:45.507Z,27.53
2019-06-01T04:06:17.886Z,27.68
2019-06-01T04:08:49.964Z,27.75
2019-06-01T04:11:22.247Z,27.85
2019-06-01T04:13:54.434Z,27.87
2019-06-01T04:16:26.592Z,27.91
2019-06-01T04:18:58.531Z,27.90
2019-06-01T04:21:30.910Z,27.88
2019-06-01T04:24:04.014Z,27.92
2019-06-01T04:26:36.205Z,27.96
2019-06-01T04:29:08.351Z,28.08
2019-06-01T04:31:40.239Z,28.07
2019-06-01T04:34:13.394Z,28.18
2019-06-01T04:36:45.575Z,28.31
2019-06-01T04:39:17.737Z,28.46
2019-06-01T04:41:50.114Z,28.59
2019-06-01T04:44:22.283Z,28.73
2019-06-01T04:46:54.455Z,28.79
2019-06-01T04:49:26.523Z,28.78
2019-06-01T04:51:58.696Z,28.74
2019-06-01T04:54:30.760Z,28.71
2019-06-01T04:57:03.037Z,28.63
2019-06-01T04:59:37.768Z,28.67
2019-06-01T05:02:09.446Z,28.72
2019-06-01T05:04:43.667Z,28.83
2019-06-01T05:07:15.916Z,28.78
2019-06-01T05:09:48.298Z,28.82
2019-06-01T05:12:20.159Z,28.75
2019-06-01T05:14:52.534Z,28.84
2019-06-01T05:17:24.802Z,28.83
2019-06-01T05:19:57.284Z,28.97
2019-06-01T05:22:29.245Z,29.07
2019-06-01T05:25:01.007Z,29.18
2019-06-01T05:27:32.971Z,29.32
2019-06-01T05:30:07.421Z,29.30
2019-06-01T05:32:39.262Z,29.43
2019-06-01T05:35:11.797Z,29.52
2019-06-01T05:37:43.708Z,29.71
2019-06-01T05:40:16.662Z,29.77
2019-06-01T05:42:50.102Z,29.78
2019-06-01T05:45:22.995Z,29.97
2019-06-01T05:47:55.058Z,30.07
2019-06-01T05:50:27.328Z,30.14
2019-06-01T05:52:59.394Z,30.21
2019-06-01T05:55:31.884Z,30.34
2019-06-01T05:58:04.044Z,30.46
2019-06-01T06:00:41.395Z,30.58
2019-06-01T06:03:16.197Z,30.72
2019-06-01T06:05:47.363Z,30.90
2019-06-01T06:08:20.055Z,31.15
2019-06-01T06:10:52.171Z,31.30
2019-06-01T06:13:24.445Z,31.30
2019-06-01T06:15:56.819Z,31.34
2019-06-01T06:18:28.889Z,31.50
2019-06-01T06:21:01.063Z,31.65
2019-06-01T06:23:33.338Z,31.73
2019-06-01T06:26:05.718Z,31.81
2019-06-01T06:28:38.087Z,32.01
2019-06-01T06:31:09.955Z,32.13
2019-06-01T06:33:55.423Z,32.32
2019-06-01T06:36:15.933Z,32.31
2019-06-01T06:38:48.095Z,32.37
2019-06-01T06:41:20.483Z,32.52
2019-06-01T06:43:52.857Z,32.52
2019-06-01T06:46:25.331Z,32.59
2019-06-01T06:48:57.395Z,32.79
2019-06-01T06:51:29.775Z,32.83
2019-06-01T06:54:01.842Z,33.03
2019-06-01T06:56:34.014Z,33.12
2019-06-01T06:59:06.416Z,33.20
2019-06-01T07:01:38.773Z,33.37
2019-06-01T07:04:12.990Z,33.49
2019-06-01T07:06:44.644Z,33.58
2019-06-01T07:09:17.875Z,33.65
2019-06-01T07:11:49.707Z,33.63
2019-06-01T07:14:23.362Z,33.84
2019-06-01T07:16:55.379Z,34.10
2019-06-01T07:19:27.945Z,34.27
2019-06-01T07:22:00.235Z,34.36
2019-06-01T07:24:32.416Z,34.46
2019-06-01T07:27:04.679Z,34.48
2019-06-01T07:29:36.840Z,34.37
2019-06-01T07:32:09.212Z,34.42
2019-06-01T07:34:42.763Z,34.55
2019-06-01T07:37:15.082Z,34.65
2019-06-01T07:39:47.254Z,34.64
2019-06-01T07:42:23.024Z,34.61
2019-06-01T07:44:52.925Z,34.58
2019-06-01T07:47:27.212Z,34.66
2019-06-01T07:49:59.352Z,34.76
2019-06-01T07:52:32.234Z,34.80
2019-06-01T07:55:05.570Z,34.94
2019-06-01T07:57:37.460Z,35.03
2019-06-01T08:00:10.774Z,35.12
2019-06-01T08:02:43.133Z,34.97
2019-06-01T08:05:15.403Z,34.93
2019-06-01T08:07:47.781Z,34.96
2019-06-01T08:10:21.338Z,35.11
2019-06-01T08:12:54.275Z,35.31
2019-06-01T08:15:28.040Z,35.39
2019-06-01T08:18:00.251Z,35.35
2019-06-01T08:20:32.296Z,35.29
2019-06-01T08:23:07.240Z,35.30
2019-06-01T08:25:39.735Z,35.25
2019-06-01T08:28:11.828Z,35.36
2019-06-01T08:30:44.383Z,35.43
2019-06-01T08:33:17.287Z,35.38
2019-06-01T08:35:49.648Z,35.59
2019-06-01T08:38:21.505Z,35.79
2019-06-01T08:40:54.874Z,35.98
2019-06-01T08:43:27.610Z,36.08
2019-06-01T08:45:59.849Z,36.05
2019-06-01T08:48:32.071Z,36.19
2019-06-01T08:51:04.191Z,36.19
2019-06-01T08:53:36.463Z,36.16
2019-06-01T08:56:08.529Z,36.28
2019-06-01T08:58:40.592Z,36.41
2019-06-01T09:01:12.861Z,36.61
2019-06-01T09:03:46.758Z,36.57
2019-06-01T09:06:18.733Z,36.26
2019-06-01T09:08:50.910Z,36.29
2019-06-01T09:11:23.192Z,36.37
2019-06-01T09:13:55.554Z,36.24
2019-06-01T09:16:29.674Z,36.15
2019-06-01T09:19:01.947Z,36.12
2019-06-01T09:21:34.011Z,36.19
2019-06-01T09:24:06.282Z,36.38
2019-06-01T09:26:38.664Z,36.49
2019-06-01T09:29:10.859Z,36.39
2019-06-01T09:31:42.880Z,36.41
2019-06-01T09:34:15.147Z,36.44
2019-06-01T09:36:47.208Z,36.61
2019-06-01T09:39:19.167Z,36.64
2019-06-01T09:41:51.344Z,36.58
2019-06-01T09:44:23.850Z,36.60
2019-06-01T09:46:56.079Z,36.78
2019-06-01T09:49:29.163Z,36.89
2019-06-01T09:52:01.436Z,36.95
2019-06-01T09:54:34.697Z,37.08
2019-06-01T09:57:07.726Z,37.28
2019-06-01T09:59:39.692Z,37.22
2019-06-01T10:02:11.545Z,37.31
2019-06-01T10:04:44.060Z,37.38
2019-06-01T10:07:16.706Z,37.50
2019-06-01T10:09:49.686Z,37.53
2019-06-01T10:12:21.884Z,37.91
2019-06-01T10:14:54.246Z,37.72
2019-06-01T10:17:26.999Z,37.72
2019-06-01T10:20:16.097Z,37.65
2019-06-01T10:22:46.297Z,37.48
2019-06-01T10:25:18.450Z,37.94
2019-06-01T10:27:50.838Z,38.04
2019-06-01T10:30:23.308Z,38.11
2019-06-01T10:32:55.672Z,38.25
2019-06-01T10:35:28.151Z,38.62
2019-06-01T10:38:00.223Z,38.78
2019-06-01T10:40:33.373Z,38.85
2019-06-01T10:43:05.898Z,38.76
2019-06-01T10:45:38.055Z,38.46
2019-06-01T10:48:10.520Z,38.47
2019-06-01T10:50:42.696Z,38.97
2019-06-01T10:53:15.071Z,39.36
2019-06-01T10:55:47.545Z,39.80
2019-06-01T10:58:20.013Z,40.26
2019-06-01T11:00:52.368Z,40.57
2019-06-01T11:03:24.786Z,40.77
2019-06-01T11:05:57.162Z,41.07
2019-06-01T11:08:29.093Z,41.39
2019-06-01T11:11:01.274Z,41.99
2019-06-01T11:13:34.905Z,42.14
2019-06-01T11:16:06.622Z,42.71
2019-06-01T11:18:39.631Z,42.46
2019-06-01T11:21:11.764Z,42.64
2019-06-01T11:23:46.489Z,42.61
2019-06-01T11:26:18.147Z,43.02
2019-06-01T11:28:50.804Z,42.84
2019-06-01T11:31:23.199Z,42.86
2019-06-01T11:33:55.988Z,43.28
2019-06-01T11:36:27.961Z,43.99
2019-06-01T11:39:00.156Z,44.56
2019-06-01T11:41:32.294Z,44.43
2019-06-01T11:44:05.302Z,44.93
2019-06-01T11:46:38.866Z,44.93
2019-06-01T11:49:11.033Z,45.27
2019-06-01T11:51:43.375Z,45.58
2019-06-01T11:54:15.381Z,45.73
2019-06-01T11:56:47.339Z,45.75
2019-06-01T11:59:21.319Z,45.50
2019-06-01T12:01:53.412Z,45.41
2019-06-01T12:04:25.788Z,45.71
2019-06-01T12:07:16.253Z,45.69
2019-06-01T12:09:32.165Z,45.86
2019-06-01T12:12:04.536Z,46.18
2019-06-01T12:14:38.335Z,46.57
2019-06-01T12:17:09.841Z,46.76
2019-06-01T12:19:42.719Z,45.96
2019-06-01T12:22:15.162Z,46.13
2019-06-01T12:24:47.486Z,46.20
2019-06-01T12:27:19.598Z,46.96
2019-06-01T12:29:52.625Z,47.21
2019-06-01T12:32:25.278Z,47.46
2019-06-01T12:34:57.229Z,47.32
2019-06-01T12:37:45.346Z,47.94
2019-06-01T12:40:07.455Z,48.37
2019-06-01T12:42:37.325Z,48.32
2019-06-01T12:45:17.381Z,47.07
2019-06-01T12:47:54.131Z,47.01
2019-06-01T12:50:23.353Z,47.47
2019-06-01T12:52:55.623Z,48.02
2019-06-01T12:55:27.794Z,48.12
2019-06-01T12:57:59.649Z,48.76
2019-06-01T13:00:31.541Z,49.51
2019-06-01T13:03:07.794Z,49.01
2019-06-01T13:05:37.493Z,49.01
2019-06-01T13:08:09.464Z,48.85
2019-06-01T13:10:41.523Z,49.17
2019-06-01T13:13:13.589Z,48.72
2019-06-01T13:15:47.262Z,48.72
2019-06-01T13:18:19.276Z,47.62
2019-06-01T13:20:51.712Z,46.82
2019-06-01T13:23:23.906Z,46.92
2019-06-01T13:25:56.380Z,47.05
2019-06-01T13:28:37.662Z,46.75
2019-06-01T13:31:02.067Z,45.66
2019-06-01T13:33:34.002Z,44.18
2019-06-01T13:36:06.313Z,43.16
2019-06-01T13:38:38.658Z,42.69
2019-06-01T13:41:10.810Z,43.08
2019-06-01T13:43:43.686Z,43.80
2019-06-01T13:46:15.765Z,44.55
2019-06-01T13:48:47.929Z,45.33
2019-06-01T13:51:20.099Z,46.24
2019-06-01T13:53:52.944Z,46.92
2019-06-01T13:56:26.071Z,47.11
2019-06-01T13:58:58.333Z,46.98
2019-06-01T14:01:30.401Z,46.82
2019-06-01T14:04:02.567Z,47.08
2019-06-01T14:06:34.839Z,47.27
2019-06-01T14:09:07.516Z,47.75
2019-06-01T14:11:39.893Z,48.09
2019-06-01T14:14:12.359Z,47.72
2019-06-01T14:16:45.467Z,47.11
2019-06-01T14:19:17.741Z,47.14
2019-06-01T14:21:50.464Z,47.00
2019-06-01T14:24:22.802Z,46.97
2019-06-01T14:26:56.210Z,46.57
2019-06-01T14:29:28.238Z,46.39
2019-06-01T14:32:00.502Z,45.79
2019-06-01T14:34:32.675Z,45.92
2019-06-01T14:37:04.947Z,45.37
2019-06-01T14:39:37.219Z,44.88
2019-06-01T14:42:09.380Z,44.55
2019-06-01T14:44:41.439Z,43.82
2019-06-01T14:47:13.612Z,42.98
2019-06-01T14:49:47.229Z,43.17
2019-06-01T14:52:19.375Z,43.25
2019-06-01T14:54:53.699Z,43.15
2019-06-01T14:57:25.961Z,42.49
2019-06-01T14:59:58.232Z,42.33
2019-06-01T15:02:30.399Z,42.29
2019-06-01T15:05:02.981Z,42.14
2019-06-01T15:07:35.342Z,41.70
2019-06-01T15:10:08.554Z,41.08
2019-06-01T15:12:40.811Z,40.33
2019-06-01T15:15:12.812Z,39.89
2019-06-01T15:17:45.343Z,39.35
2019-06-01T15:20:17.542Z,38.94
2019-06-01T15:22:50.030Z,39.26
2019-06-01T15:25:22.054Z,39.72
2019-06-01T15:27:54.732Z,39.89
2019-06-01T15:30:27.007Z,40.26
2019-06-01T15:33:00.516Z,40.38
2019-06-01T15:35:32.671Z,40.66
2019-06-01T15:38:05.147Z,41.06
2019-06-01T15:40:37.520Z,40.62
2019-06-01T15:43:09.901Z,40.43
2019-06-01T15:45:42.376Z,40.14
2019-06-01T15:48:15.571Z,40.21
2019-06-01T15:50:47.838Z,40.31
2019-06-01T15:53:20.406Z,40.59
2019-06-01T15:55:52.678Z,40.61
2019-06-01T15:58:25.140Z,40.17
2019-06-01T16:00:58.593Z,40.07
2019-06-01T16:03:34.211Z,39.34
2019-06-01T16:06:06.156Z,38.67
2019-06-01T16:08:38.423Z,37.82
2019-06-01T16:11:10.581Z,37.15
2019-06-01T16:13:42.859Z,36.75
2019-06-01T16:16:15.123Z,36.41
2019-06-01T16:18:47.189Z,36.00
2019-06-01T16:21:20.155Z,35.71
2019-06-01T16:23:52.341Z,35.27
2019-06-01T16:26:24.541Z,34.97
2019-06-01T16:28:56.889Z,34.65
2019-06-01T16:31:29.467Z,34.26
2019-06-01T16:34:02.905Z,33.98
2019-06-01T16:36:35.222Z,33.77
2019-06-01T16:39:09.674Z,33.62
2019-06-01T16:41:41.721Z,33.51
2019-06-01T16:44:13.667Z,33.42
2019-06-01T16:46:46.038Z,33.32
2019-06-01T16:49:18.324Z,33.18
2019-06-01T16:51:59.029Z,33.19
2019-06-01T16:54:31.348Z,33.14
2019-06-01T16:57:03.637Z,33.01
2019-06-01T16:59:36.098Z,32.94
2019-06-01T17:02:08.269Z,32.83
2019-06-01T17:04:40.761Z,32.75
2019-06-01T17:07:13.107Z,32.66
2019-06-01T17:09:45.482Z,32.57
2019-06-01T17:12:17.553Z,32.56
2019-06-01T17:14:49.918Z,32.49
2019-06-01T17:17:22.515Z,32.45
2019-06-01T17:19:54.546Z,32.37
2019-06-01T17:22:26.624Z,32.23
2019-06-01T17:25:00.018Z,32.15
2019-06-01T17:27:31.786Z,32.13
2019-06-01T17:30:06.980Z,32.09
2019-06-01T17:32:37.957Z,32.03
2019-06-01T17:35:12.284Z,31.99
2019-06-01T17:37:44.549Z,31.96
2019-06-01T17:40:17.123Z,31.96
2019-06-01T17:42:49.396Z,31.94
2019-06-01T17:45:21.803Z,31.97
2019-06-01T17:47:54.144Z,31.93
2019-06-01T17:50:27.228Z,31.87
2019-06-01T17:53:00.559Z,31.89
2019-06-01T17:55:34.620Z,31.85
2019-06-01T17:58:07.935Z,31.78
2019-06-01T18:00:40.213Z,31.76
2019-06-01T18:03:13.796Z,31.77
2019-06-01T18:05:46.459Z,31.74
2019-06-01T18:08:19.263Z,31.71
2019-06-01T18:10:54.668Z,31.63
2019-06-01T18:13:25.497Z,31.56
2019-06-01T18:15:58.262Z,31.56
2019-06-01T18:18:30.390Z,31.56
2019-06-01T18:21:02.658Z,31.54
2019-06-01T18:23:35.029Z,31.53
2019-06-01T18:26:08.952Z,31.53
2019-06-01T18:28:41.203Z,31.48
2019-06-01T18:31:15.329Z,31.44
2019-06-01T18:33:48.623Z,31.39
2019-06-01T18:36:20.578Z,31.38
2019-06-01T18:38:53.052Z,31.36
2019-06-01T18:41:25.867Z,31.33
2019-06-01T18:43:58.306Z,31.28
2019-06-01T18:46:30.639Z,31.23
2019-06-01T18:49:03.781Z,31.24
2019-06-01T18:51:35.877Z,31.23
2019-06-01T18:54:08.713Z,31.16
2019-06-01T18:56:40.992Z,31.21
2019-06-01T18:59:14.461Z,31.24
2019-06-01T19:01:46.671Z,31.28
2019-06-01T19:04:19.128Z,31.27
2019-06-01T19:06:51.299Z,31.29
2019-06-01T19:09:23.670Z,31.32
2019-06-01T19:11:59.030Z,31.21
2019-06-01T19:14:31.382Z,31.31
2019-06-01T19:17:03.563Z,31.29
2019-06-01T19:19:36.376Z,31.28
2019-06-01T19:22:09.134Z,31.27
2019-06-01T19:24:41.397Z,31.26
2019-06-01T19:27:14.947Z,31.23
2019-06-01T19:29:47.449Z,31.15
2019-06-01T19:32:21.352Z,31.16
2019-06-01T19:34:53.747Z,31.14
2019-06-01T19:37:25.999Z,31.17
2019-06-01T19:39:58.368Z,31.16
2019-06-01T19:42:30.784Z,31.15
2019-06-01T19:45:14.241Z,31.19
2019-06-01T19:47:40.509Z,31.13
2019-06-01T19:50:12.883Z,31.15
2019-06-01T19:52:45.359Z,31.08
2019-06-01T19:55:19.788Z,31.07
2019-06-01T19:57:51.837Z,30.83
2019-06-01T20:00:24.312Z,30.59
2019-06-01T20:02:57.020Z,29.74
2019-06-01T20:05:29.482Z,28.77
2019-06-01T20:08:01.643Z,28.21
2019-06-01T20:10:34.303Z,27.51
2019-06-01T20:13:06.798Z,27.23
2019-06-01T20:15:39.382Z,26.95
2019-06-01T20:18:12.678Z,26.57
2019-06-01T20:20:44.919Z,26.27
2019-06-01T20:23:19.525Z,26.07
2019-06-01T20:25:51.990Z,25.90
2019-06-01T20:28:24.220Z,25.77
2019-06-01T20:30:56.736Z,25.64
2019-06-01T20:33:28.643Z,25.60
2019-06-01T20:36:00.605Z,25.42
2019-06-01T20:38:33.297Z,25.36
2019-06-01T20:41:05.449Z,25.25
2019-06-01T20:43:37.772Z,24.85
2019-06-01T20:46:10.237Z,24.84
2019-06-01T20:48:42.782Z,24.43
2019-06-01T20:51:15.153Z,24.15
2019-06-01T20:53:47.636Z,24.11
2019-06-01T20:56:21.452Z,23.69
2019-06-01T20:58:53.793Z,23.45
2019-06-01T21:01:25.859Z,23.44
2019-06-01T21:03:58.134Z,23.44
2019-06-01T21:06:30.420Z,23.35
2019-06-01T21:09:02.814Z,23.37
2019-06-01T21:11:36.707Z,23.24
2019-06-01T21:14:08.950Z,23.26
2019-06-01T21:16:41.027Z,23.22
2019-06-01T21:19:14.140Z,23.13
2019-06-01T21:21:46.679Z,23.33
2019-06-01T21:24:18.857Z,23.04
2019-06-01T21:26:51.116Z,22.78
2019-06-01T21:29:23.319Z,23.01
2019-06-01T21:31:55.560Z,22.94
2019-06-01T21:34:27.827Z,22.97
2019-06-01T21:37:00.084Z,22.73
2019-06-01T21:39:33.389Z,22.78
2019-06-01T21:42:05.913Z,22.85
2019-06-01T21:44:37.929Z,23.01
2019-06-01T21:47:10.197Z,23.13
2019-06-01T21:49:42.671Z,23.06
2019-06-01T21:52:15.809Z,22.96
2019-06-01T21:54:48.468Z,23.17
2019-06-01T21:57:20.814Z,23.31
2019-06-01T21:59:53.460Z,23.45
2019-06-01T22:02:25.739Z,23.56
2019-06-01T22:04:58.159Z,23.59
2019-06-01T22:07:30.411Z,23.69
2019-06-01T22:10:02.984Z,23.79
2019-06-01T22:12:35.159Z,23.84
2019-06-01T22:15:07.495Z,23.93
2019-06-01T22:17:39.590Z,23.99
2019-06-01T22:20:12.068Z,24.01
2019-06-01T22:22:44.831Z,23.99
2019-06-01T22:25:17.788Z,24.03
2019-06-01T22:27:50.226Z,24.11
2019-06-01T22:30:22.693Z,24.14
2019-06-01T22:32:54.665Z,24.17
2019-06-01T22:35:26.836Z,24.20
2019-06-01T22:37:59.658Z,24.23
2019-06-01T22:40:31.673Z,24.22
2019-06-01T22:43:04.355Z,24.22
2019-06-01T22:45:36.448Z,24.27
2019-06-01T22:48:08.696Z,24.29
2019-06-01T22:50:41.073Z,24.30
2019-06-01T22:53:13.190Z,24.27
2019-06-01T22:55:45.520Z,24.26
2019-06-01T22:58:17.394Z,24.24
2019-06-01T23:00:49.438Z,24.22
2019-06-01T23:03:21.847Z,24.26
2019-06-01T23:05:53.987Z,24.26
2019-06-01T23:08:27.316Z,24.28
2019-06-01T23:10:59.346Z,24.28
2019-06-01T23:13:32.446Z,24.28
2019-06-01T23:16:04.615Z,24.28
2019-06-01T23:18:36.989Z,24.27
2019-06-01T23:21:08.971Z,24.28
2019-06-01T23:23:41.015Z,24.30
2019-06-01T23:26:13.306Z,24.25
2019-06-01T23:28:45.252Z,24.30
2019-06-01T23:31:17.222Z,24.29
2019-06-01T23:33:49.798Z,24.29
2019-06-01T23:36:22.493Z,24.26
2019-06-01T23:38:54.445Z,24.27
2019-06-01T23:41:26.667Z,24.33
2019-06-01T23:44:11.209Z,24.32
2019-06-01T23:46:33.471Z,24.34
2019-06-01T23:49:05.489Z,24.24
2019-06-01T23:51:37.868Z,24.23
2019-06-01T23:54:10.444Z,24.22
2019-06-01T23:56:42.619Z,24.18
2019-06-01T23:59:14.520Z,24.16
